Time;durP1;ratioP1;P1;durP2;ratioP2;P2;SDS_P1;SDS_P2;PMS_P1;PMS_P2;Temp;Humidity;BMP_temperature;BMP_pressure;BME280_temperature;BME280_humidity;BME280_pressure;Samples;Min_cycle;Max_cycle;Signal;HPM_P1;HPM_P2
2021/07/31 00:01:06;;;;;;;6.13;2.10;;;20.70;96.10;;;;;;5133634;28;20363;-66
2021/07/31 00:03:32;;;;;;;4.07;2.38;;;20.70;96.30;;;;;;5133843;28;20019;-66
2021/07/31 00:05:58;;;;;;;5.20;1.80;;;20.70;96.50;;;;;;5133619;28;20348;-66
2021/07/31 00:08:23;;;;;;;5.50;2.50;;;20.60;96.40;;;;;;5132231;28;20035;-66
2021/07/31 00:10:49;;;;;;;4.28;1.90;;;20.60;96.50;;;;;;5133748;28;20019;-66
2021/07/31 00:13:15;;;;;;;5.22;1.98;;;20.60;96.50;;;;;;5132234;28;20035;-66
2021/07/31 00:15:41;;;;;;;4.30;2.22;;;20.50;96.60;;;;;;5132424;28;20345;-66
2021/07/31 00:18:06;;;;;;;4.53;2.03;;;20.50;96.70;;;;;;5132373;28;20063;-66
2021/07/31 00:20:32;;;;;;;2.95;1.95;;;20.50;96.70;;;;;;5132326;28;20084;-66
2021/07/31 00:22:57;;;;;;;6.13;1.90;;;20.40;96.80;;;;;;5133619;28;20540;-66
2021/07/31 00:25:23;;;;;;;3.70;2.05;;;20.40;96.80;;;;;;5133584;28;20098;-66
2021/07/31 00:27:49;;;;;;;4.93;2.05;;;20.40;96.90;;;;;;5133618;28;20028;-66
2021/07/31 00:30:14;;;;;;;2.88;1.85;;;20.30;96.90;;;;;;5133439;28;20533;-66
2021/07/31 00:32:40;;;;;;;6.25;2.25;;;20.30;97.00;;;;;;5133998;28;20433;-66
2021/07/31 00:35:06;;;;;;;2.65;1.83;;;20.20;97.20;;;;;;5133873;28;20034;-67
2021/07/31 00:37:32;;;;;;;;;;;20.20;97.50;;;;;;5133974;28;20038;-66
2021/07/31 00:39:58;;;;;;;3.70;1.80;;;20.20;97.40;;;;;;5133605;27;19903;-66
2021/07/31 00:42:23;;;;;;;3.33;2.05;;;20.10;97.50;;;;;;5133627;28;20110;-66
2021/07/31 00:44:49;;;;;;;3.45;2.47;;;20.10;97.50;;;;;;5132191;28;20038;-66
2021/07/31 00:47:15;;;;;;;5.60;1.90;;;20.00;97.70;;;;;;5135456;27;20086;-66
2021/07/31 00:49:41;;;;;;;3.78;2.00;;;20.00;97.90;;;;;;5135936;27;20363;-66
2021/07/31 00:52:08;;;;;;;6.03;2.17;;;20.00;98.00;;;;;;5137164;27;20380;-66
2021/07/31 00:54:34;;;;;;;5.03;2.00;;;19.90;98.10;;;;;;5137257;27;20023;-66
2021/07/31 00:57:01;;;;;;;9.27;2.08;;;19.90;98.20;;;;;;5136894;27;20487;-66
2021/07/31 00:59:26;;;;;;;;;;;19.80;98.40;;;;;;5137592;27;20418;-66
2021/07/31 01:01:52;;;;;;;5.88;2.05;;;19.80;98.50;;;;;;5135574;27;19994;-66
2021/07/31 01:04:17;;;;;;;4.18;2.00;;;19.70;98.60;;;;;;5135595;27;20130;-66
2021/07/31 01:06:43;;;;;;;4.13;2.00;;;19.70;98.60;;;;;;5136861;27;20023;-66
2021/07/31 01:09:10;;;;;;;6.13;2.10;;;19.70;98.40;;;;;;5137115;27;20391;-66
2021/07/31 01:11:36;;;;;;;4.38;1.85;;;19.70;98.30;;;;;;5136707;27;20495;-66
2021/07/31 01:14:02;;;;;;;3.85;2.33;;;19.70;98.30;;;;;;5136764;27;20055;-67
2021/07/31 01:16:28;;;;;;;4.70;1.80;;;19.70;98.00;;;;;;5136569;27;20036;-68
2021/07/31 01:18:54;;;;;;;4.07;1.85;;;19.70;98.00;;;;;;5137117;27;20549;-66
2021/07/31 01:21:46;;;;;;;3.20;1.85;;;19.60;98.00;;;;;;5137938;27;20125;-67
2021/07/31 01:24:14;;;;;;;6.90;2.10;;;19.60;98.50;;;;;;5134479;27;20054;-67
2021/07/31 01:26:47;;;;;;;5.30;1.98;;;19.50;98.30;;;;;;5136362;27;20027;-67
2021/07/31 01:29:15;;;;;;;2.22;1.80;;;19.50;98.40;;;;;;5136544;27;20022;-67
2021/07/31 01:31:42;;;;;;;5.68;2.15;;;19.40;98.10;;;;;;5137186;27;20027;-67
2021/07/31 01:34:08;;;;;;;4.55;1.77;;;19.40;97.80;;;;;;5136939;27;20041;-67
2021/07/31 01:36:34;;;;;;;4.78;1.83;;;19.50;97.30;;;;;;5138265;27;20535;-67
2021/07/31 01:39:00;;;;;;;5.38;1.83;;;19.40;96.80;;;;;;5137256;27;20128;-67
2021/07/31 01:41:26;;;;;;;3.58;1.60;;;19.50;96.50;;;;;;5135557;27;20024;-67
2021/07/31 01:43:53;;;;;;;3.05;1.65;;;19.50;96.30;;;;;;5136802;27;20023;-67
2021/07/31 01:46:20;;;;;;;7.00;1.60;;;19.50;96.20;;;;;;5136782;27;20027;-67
2021/07/31 01:48:46;;;;;;;5.22;1.50;;;19.40;96.00;;;;;;5136897;27;20020;-67
2021/07/31 01:51:12;;;;;;;5.53;1.77;;;19.50;95.80;;;;;;5135707;27;20015;-67
2021/07/31 01:53:38;;;;;;;2.92;1.30;;;19.40;95.70;;;;;;5136632;27;20038;-67
2021/07/31 01:56:04;;;;;;;5.78;1.50;;;19.40;95.70;;;;;;5135907;27;20027;-67
2021/07/31 01:58:30;;;;;;;3.63;1.45;;;19.40;95.70;;;;;;5135331;27;20034;-67
2021/07/31 02:00:57;;;;;;;3.88;1.60;;;19.40;95.90;;;;;;5136129;27;20031;-67
2021/07/31 02:03:22;;;;;;;6.47;1.70;;;19.40;96.00;;;;;;5136084;27;20019;-67
2021/07/31 02:05:48;;;;;;;6.50;1.63;;;19.30;96.10;;;;;;5135673;27;20484;-67
2021/07/31 02:08:15;;;;;;;7.25;1.92;;;19.30;96.20;;;;;;5134271;27;20023;-67
2021/07/31 02:10:40;;;;;;;;;;;19.30;96.40;;;;;;5136102;27;20023;-67
2021/07/31 02:13:06;;;;;;;4.47;1.70;;;19.30;96.50;;;;;;5135558;27;19910;-67
2021/07/31 02:15:31;;;;;;;4.93;1.42;;;19.30;96.50;;;;;;5135593;27;20076;-67
2021/07/31 02:18:00;;;;;;;6.60;1.65;;;19.20;96.60;;;;;;5134177;27;20344;-67
2021/07/31 02:20:26;;;;;;;3.47;1.60;;;19.20;96.80;;;;;;5135828;27;20376;-67
2021/07/31 02:22:52;;;;;;;6.15;2.03;;;19.10;97.10;;;;;;5135340;27;20030;-68
2021/07/31 02:25:17;;;;;;;6.15;1.67;;;19.10;97.10;;;;;;5135596;27;20023;-67
2021/07/31 02:27:43;;;;;;;5.22;1.67;;;19.00;97.30;;;;;;5135220;27;20027;-67
2021/07/31 02:30:10;;;;;;;4.18;1.65;;;19.00;97.30;;;;;;5135674;27;20027;-67
2021/07/31 02:32:37;;;;;;;4.28;1.50;;;18.90;97.50;;;;;;5135094;27;20023;-67
2021/07/31 02:35:03;;;;;;;4.32;1.63;;;18.90;97.50;;;;;;5135166;27;20026;-67
2021/07/31 02:37:29;;;;;;;3.88;1.50;;;18.90;97.50;;;;;;5134940;27;20102;-67
2021/07/31 02:39:54;;;;;;;5.60;1.73;;;18.90;97.80;;;;;;5135211;27;20051;-67
2021/07/31 02:42:20;;;;;;;3.58;1.60;;;18.80;97.80;;;;;;5134933;27;20039;-67
2021/07/31 02:44:46;;;;;;;4.60;1.95;;;18.80;97.90;;;;;;5133557;27;20027;-67
2021/07/31 02:47:11;;;;;;;8.95;2.50;;;18.70;98.00;;;;;;5133353;27;20114;-67
2021/07/31 02:49:37;;;;;;;4.88;1.70;;;18.70;98.00;;;;;;5134863;27;20055;-67
2021/07/31 02:52:03;;;;;;;3.28;1.50;;;18.70;98.10;;;;;;5133479;27;20027;-67
2021/07/31 02:54:29;;;;;;;4.60;1.50;;;18.70;98.20;;;;;;5134786;27;20032;-67
2021/07/31 02:56:54;;;;;;;5.35;1.38;;;18.60;98.20;;;;;;5134802;27;20420;-67
2021/07/31 02:59:20;;;;;;;5.38;1.45;;;18.60;98.30;;;;;;5134074;27;20031;-67
2021/07/31 03:01:46;;;;;;;5.53;1.50;;;18.50;98.20;;;;;;5134585;27;20023;-67
2021/07/31 03:04:11;;;;;;;3.35;1.48;;;18.50;98.30;;;;;;5134827;27;20023;-67
2021/07/31 03:06:37;;;;;;;9.32;1.63;;;18.40;98.30;;;;;;5134552;27;20027;-67
2021/07/31 03:09:02;;;;;;;5.85;1.60;;;18.40;98.30;;;;;;5133142;27;20055;-67
2021/07/31 03:11:28;;;;;;;6.63;1.80;;;18.40;98.30;;;;;;5133621;27;20071;-67
2021/07/31 03:13:54;;;;;;;3.95;1.35;;;18.40;98.20;;;;;;5134393;27;20023;-67
2021/07/31 03:16:19;;;;;;;6.53;1.95;;;18.30;98.30;;;;;;5135547;27;20038;-68
2021/07/31 03:18:45;;;;;;;8.80;1.58;;;18.30;98.30;;;;;;5139663;27;20034;-68
2021/07/31 03:21:11;;;;;;;7.28;1.63;;;18.30;98.60;;;;;;5140449;27;20056;-67
2021/07/31 03:23:37;;;;;;;;;;;18.20;98.50;;;;;;5137704;27;20027;-67
2021/07/31 03:26:03;;;;;;;3.95;1.33;;;18.20;98.50;;;;;;5133806;27;19930;-67
2021/07/31 03:28:29;;;;;;;3.40;1.45;;;18.20;98.30;;;;;;5134966;27;20448;-67
2021/07/31 03:30:56;;;;;;;4.45;1.30;;;18.20;98.20;;;;;;5134142;27;20035;-67
2021/07/31 03:33:21;;;;;;;6.28;1.30;;;18.10;98.10;;;;;;5132892;27;20391;-67
2021/07/31 03:35:47;;;;;;;4.47;1.48;;;18.10;98.30;;;;;;5132877;27;20019;-67
2021/07/31 03:38:13;;;;;;;5.53;1.42;;;18.20;98.30;;;;;;5134190;27;20031;-67
2021/07/31 03:40:39;;;;;;;2.72;1.38;;;18.10;97.90;;;;;;5134045;27;20446;-67
2021/07/31 03:43:04;;;;;;;2.97;1.38;;;18.10;97.90;;;;;;5133787;27;20034;-67
2021/07/31 03:45:30;;;;;;;9.57;2.25;;;18.00;98.00;;;;;;5134503;27;20064;-67
2021/07/31 03:47:56;;;;;;;6.43;1.60;;;18.10;98.00;;;;;;5133609;27;20068;-67
2021/07/31 03:50:22;;;;;;;4.80;1.38;;;18.10;98.10;;;;;;5132510;27;20015;-67
2021/07/31 03:52:48;;;;;;;6.32;2.10;;;18.00;98.10;;;;;;5132376;27;20095;-67
2021/07/31 03:55:14;;;;;;;3.28;1.38;;;18.00;98.10;;;;;;5133744;28;20019;-67
2021/07/31 03:57:40;;;;;;;3.20;1.30;;;18.00;98.10;;;;;;5133746;28;20035;-67
2021/07/31 04:00:06;;;;;;;3.50;1.23;;;18.00;98.10;;;;;;5132393;28;20023;-67
2021/07/31 04:02:32;;;;;;;;;;;18.00;98.00;;;;;;5133979;28;20397;-67
2021/07/31 04:04:58;;;;;;;7.55;1.58;;;18.00;98.00;;;;;;5133841;27;19903;-67
2021/07/31 04:07:23;;;;;;;7.25;1.58;;;17.90;98.00;;;;;;5133744;28;20428;-67
2021/07/31 04:09:49;;;;;;;4.10;1.50;;;17.90;98.00;;;;;;5133589;28;20031;-67
2021/07/31 04:12:15;;;;;;;6.43;1.40;;;17.90;98.00;;;;;;5133538;28;20399;-67
2021/07/31 04:14:40;;;;;;;4.07;1.50;;;17.90;98.00;;;;;;5133657;28;20019;-67
2021/07/31 04:17:06;;;;;;;6.95;1.50;;;17.90;97.90;;;;;;5133458;28;20130;-67
2021/07/31 04:19:31;;;;;;;6.22;1.77;;;17.90;98.00;;;;;;5134135;28;20031;-67
2021/07/31 04:21:57;;;;;;;5.15;1.25;;;17.90;97.90;;;;;;5135048;27;20016;-67
2021/07/31 04:24:24;;;;;;;3.17;1.45;;;17.90;97.80;;;;;;5137471;27;20027;-67
2021/07/31 04:26:49;;;;;;;8.68;2.22;;;17.90;98.00;;;;;;5137514;27;20047;-67
2021/07/31 04:29:15;;;;;;;7.00;1.60;;;17.90;98.00;;;;;;5137948;27;20379;-67
2021/07/31 04:31:41;;;;;;;3.42;1.30;;;17.90;98.00;;;;;;5137778;27;20118;-67
2021/07/31 04:34:07;;;;;;;7.15;1.55;;;17.90;98.00;;;;;;5137777;27;20030;-67
2021/07/31 04:36:33;;;;;;;5.20;1.75;;;17.90;98.00;;;;;;5136045;27;20084;-67
2021/07/31 04:38:59;;;;;;;6.97;1.40;;;17.90;98.10;;;;;;5135872;27;20023;-67
2021/07/31 04:41:24;;;;;;;3.90;1.25;;;17.90;98.10;;;;;;5135885;27;20054;-67
2021/07/31 04:43:50;;;;;;;4.43;1.50;;;17.90;98.20;;;;;;5135947;27;20050;-67
2021/07/31 04:46:16;;;;;;;3.90;1.30;;;17.90;98.20;;;;;;5135864;27;20389;-67
2021/07/31 04:48:42;;;;;;;7.63;1.42;;;17.90;98.20;;;;;;5137097;27;20011;-67
2021/07/31 04:51:09;;;;;;;4.80;1.77;;;17.90;98.20;;;;;;5138552;27;20030;-67
2021/07/31 04:53:35;;;;;;;4.22;1.48;;;17.90;98.20;;;;;;5139001;27;20410;-67
2021/07/31 04:56:01;;;;;;;7.97;1.83;;;17.90;98.20;;;;;;5135715;27;20057;-67
2021/07/31 04:58:26;;;;;;;2.60;1.40;;;17.90;98.10;;;;;;5136864;27;20125;-67
2021/07/31 05:00:54;;;;;;;6.10;1.40;;;17.90;98.10;;;;;;5135706;27;20060;-67
2021/07/31 05:03:21;;;;;;;6.28;1.40;;;17.90;98.20;;;;;;5136498;27;20035;-67
2021/07/31 05:05:47;;;;;;;6.40;1.60;;;17.90;98.20;;;;;;5136533;27;20015;-67
2021/07/31 05:08:13;;;;;;;7.05;1.27;;;18.00;98.20;;;;;;5136531;27;20034;-67
2021/07/31 05:10:44;;;;;;;3.58;1.30;;;18.00;98.30;;;;;;5136838;27;20049;-67
2021/07/31 05:13:10;;;;;;;2.70;1.23;;;18.00;98.40;;;;;;5136630;27;20030;-67
2021/07/31 05:15:37;;;;;;;;;;;18.00;98.40;;;;;;5136947;27;20054;-67
2021/07/31 05:18:03;;;;;;;6.30;1.55;;;18.00;98.40;;;;;;5136525;27;19903;-67
2021/07/31 05:20:29;;;;;;;2.75;1.20;;;18.00;98.40;;;;;;5135093;27;20039;-67
2021/07/31 05:22:55;;;;;;;5.15;1.40;;;18.10;98.40;;;;;;5134984;27;20031;-67
2021/07/31 05:25:20;;;;;;;2.88;1.40;;;18.10;98.30;;;;;;5136481;27;20106;-66
2021/07/31 05:27:46;;;;;;;4.13;1.20;;;18.20;98.30;;;;;;5136638;27;20023;-66
2021/07/31 05:30:12;;;;;;;4.38;1.67;;;18.20;98.30;;;;;;5136221;27;20025;-67
2021/07/31 05:32:37;;;;;;;6.15;1.40;;;18.20;98.10;;;;;;5135852;27;20101;-67
2021/07/31 05:35:04;;;;;;;6.80;1.40;;;18.20;98.10;;;;;;5135766;27;20066;-66
2021/07/31 05:37:31;;;;;;;;;;;18.30;98.20;;;;;;5136849;27;20395;-66
2021/07/31 05:40:00;;;;;;;5.43;1.80;;;18.30;98.00;;;;;;5134816;27;19903;-66
2021/07/31 05:42:27;;;;;;;5.65;1.38;;;18.40;97.90;;;;;;5136749;27;20456;-67
2021/07/31 05:44:56;;;;;;;;;;;18.40;98.00;;;;;;5140329;27;20042;-66
2021/07/31 05:47:24;;;;;;;6.25;1.15;;;18.50;97.80;;;;;;5135889;27;19908;-65
2021/07/31 05:49:50;;;;;;;8.73;1.67;;;18.60;97.70;;;;;;5135874;27;20484;-66
2021/07/31 05:52:16;;;;;;;5.80;1.40;;;18.70;97.50;;;;;;5134431;27;20020;-66
2021/07/31 05:54:42;;;;;;;3.25;1.10;;;18.80;97.60;;;;;;5135778;27;20068;-66
2021/07/31 05:57:07;;;;;;;3.95;1.05;;;18.80;97.40;;;;;;5135826;27;20023;-67
2021/07/31 05:59:33;;;;;;;4.78;1.58;;;18.80;97.30;;;;;;5136268;27;20023;-66
2021/07/31 06:01:58;;;;;;;4.53;1.20;;;18.80;97.30;;;;;;5135892;27;20330;-66
2021/07/31 06:04:24;;;;;;;7.93;1.45;;;18.90;96.90;;;;;;5134474;27;20027;-67
2021/07/31 06:06:50;;;;;;;3.63;1.25;;;19.00;96.80;;;;;;5135410;27;20030;-66
2021/07/31 06:09:15;;;;;;;4.80;1.55;;;19.00;96.90;;;;;;5135554;27;20049;-66
2021/07/31 06:11:41;;;;;;;4.50;1.40;;;19.10;96.80;;;;;;5135473;27;20030;-67
2021/07/31 06:14:06;;;;;;;4.88;1.55;;;19.10;96.50;;;;;;5134414;27;20023;-66
2021/07/31 06:16:32;;;;;;;3.15;1.27;;;19.10;96.40;;;;;;5135300;27;20087;-66
2021/07/31 06:18:58;;;;;;;3.80;1.45;;;19.10;96.00;;;;;;5135837;27;20023;-68
2021/07/31 06:21:23;;;;;;;7.22;1.73;;;19.20;96.30;;;;;;5135419;27;20039;-68
2021/07/31 06:23:49;;;;;;;4.70;1.60;;;19.30;95.80;;;;;;5135758;27;20027;-66
2021/07/31 06:26:15;;;;;;;4.03;1.52;;;19.30;95.70;;;;;;5135350;27;20515;-67
2021/07/31 06:28:40;;;;;;;6.10;1.40;;;19.40;95.70;;;;;;5135287;27;20026;-67
2021/07/31 06:31:09;;;;;;;4.50;1.40;;;19.50;95.40;;;;;;5135105;27;20035;-66
2021/07/31 06:33:35;;;;;;;2.97;1.02;;;19.60;95.30;;;;;;5133939;27;20456;-66
2021/07/31 06:36:01;;;;;;;8.95;1.50;;;19.60;95.20;;;;;;5135298;27;20053;-66
2021/07/31 06:38:27;;;;;;;10.57;1.75;;;19.60;95.10;;;;;;5133727;27;20031;-67
2021/07/31 06:40:52;;;;;;;7.07;1.75;;;19.60;95.10;;;;;;5116973;27;20114;-66
2021/07/31 06:43:18;;;;;;;7.47;1.58;;;19.60;94.80;;;;;;5135293;27;20027;-67
2021/07/31 06:45:44;;;;;;;7.50;1.48;;;19.70;94.70;;;;;;5135841;27;20015;-66
2021/07/31 06:48:09;;;;;;;3.75;1.30;;;19.70;94.50;;;;;;5135944;27;20027;-65
2021/07/31 06:50:35;;;;;;;3.30;1.20;;;19.70;94.50;;;;;;5134959;27;20026;-66
2021/07/31 06:53:01;;;;;;;9.10;1.58;;;19.80;94.30;;;;;;5133419;27;20128;-67
2021/07/31 06:55:27;;;;;;;5.40;1.42;;;19.90;94.10;;;;;;5134938;27;20023;-65
2021/07/31 06:57:52;;;;;;;7.70;1.70;;;19.90;94.00;;;;;;5135067;27;20429;-65
2021/07/31 07:00:18;;;;;;;4.05;1.30;;;19.90;94.10;;;;;;5135230;27;20031;-66
2021/07/31 07:02:44;;;;;;;7.47;1.65;;;20.00;93.90;;;;;;5135707;27;20030;-66
2021/07/31 07:05:09;;;;;;;7.22;1.40;;;20.00;93.90;;;;;;5134779;27;20035;-65
2021/07/31 07:07:35;;;;;;;5.82;1.52;;;20.10;93.60;;;;;;5134285;27;20377;-65
2021/07/31 07:10:01;;;;;;;10.38;2.05;;;20.10;93.30;;;;;;5133848;27;20029;-66
2021/07/31 07:12:26;;;;;;;5.88;1.45;;;20.10;93.30;;;;;;5134597;27;20110;-67
2021/07/31 07:14:52;;;;;;;4.78;1.35;;;20.20;93.60;;;;;;5134445;27;20026;-66
2021/07/31 07:17:18;;;;;;;10.88;1.45;;;20.30;93.60;;;;;;5134557;27;20085;-65
2021/07/31 07:19:43;;;;;;;7.75;1.83;;;20.30;93.70;;;;;;5133054;27;20109;-66
2021/07/31 07:22:09;;;;;;;4.50;1.55;;;20.40;93.40;;;;;;5134771;27;20037;-65
2021/07/31 07:24:35;;;;;;;7.03;2.17;;;20.40;93.40;;;;;;5134727;27;20384;-67
2021/07/31 07:27:01;;;;;;;4.57;1.40;;;20.50;93.70;;;;;;5134286;27;20031;-65
2021/07/31 07:29:27;;;;;;;3.33;1.30;;;20.60;93.40;;;;;;5133051;27;20468;-66
2021/07/31 07:31:52;;;;;;;4.38;1.30;;;20.60;93.10;;;;;;5134114;27;20073;-65
2021/07/31 07:34:18;;;;;;;7.45;1.88;;;20.70;93.10;;;;;;5134294;27;20023;-66
2021/07/31 07:36:44;;;;;;;4.68;1.27;;;20.80;93.10;;;;;;5132691;27;20472;-66
2021/07/31 07:39:10;;;;;;;5.57;1.63;;;20.80;92.40;;;;;;5134020;27;20031;-66
2021/07/31 07:41:35;;;;;;;4.45;1.98;;;20.90;92.40;;;;;;5132682;27;20027;-65
2021/07/31 07:44:01;;;;;;;4.50;1.77;;;20.90;92.00;;;;;;5133768;27;20024;-66
2021/07/31 07:46:26;;;;;;;5.10;1.52;;;20.90;92.30;;;;;;5134045;27;20027;-66
2021/07/31 07:48:52;;;;;;;9.95;1.92;;;20.90;92.40;;;;;;5134323;27;20015;-66
2021/07/31 07:51:18;;;;;;;6.18;1.50;;;21.00;92.40;;;;;;5134239;27;20031;-66
2021/07/31 07:53:44;;;;;;;7.03;1.77;;;21.00;92.10;;;;;;5133018;27;20023;-66
2021/07/31 07:56:10;;;;;;;;;;;21.10;92.40;;;;;;5133892;27;20125;-67
2021/07/31 07:58:36;;;;;;;5.05;1.80;;;21.10;91.90;;;;;;5134004;27;20020;-66
2021/07/31 08:01:03;;;;;;;6.45;1.48;;;21.20;91.80;;;;;;5133851;28;20031;-66
2021/07/31 08:03:29;;;;;;;3.90;1.35;;;21.30;91.60;;;;;;5133699;28;20197;-66
2021/07/31 08:05:55;;;;;;;5.80;1.50;;;21.40;91.50;;;;;;5133910;28;20441;-66
2021/07/31 08:08:20;;;;;;;5.68;1.60;;;22.40;90.60;;;;;;5133502;28;20019;-65
2021/07/31 08:10:46;;;;;;;3.58;1.35;;;23.50;88.20;;;;;;5133843;28;20019;-66
2021/07/31 08:13:11;;;;;;;;;;;24.80;85.50;;;;;;5132607;28;20088;-65
2021/07/31 08:15:37;;;;;;;3.15;1.10;;;25.40;83.20;;;;;;5133985;27;19903;-66
2021/07/31 08:18:02;;;;;;;3.85;1.48;;;25.40;82.40;;;;;;5133181;28;20087;-67
2021/07/31 08:20:28;;;;;;;;;;;25.20;83.40;;;;;;5134149;28;20027;-65
2021/07/31 08:22:54;;;;;;;5.03;1.50;;;25.00;84.00;;;;;;5132168;28;19961;-65
2021/07/31 08:25:20;;;;;;;4.22;1.60;;;25.50;83.10;;;;;;5134010;28;20023;-66
2021/07/31 08:27:45;;;;;;;2.85;1.17;;;26.80;81.10;;;;;;5133396;28;20064;-67
2021/07/31 08:30:11;;;;;;;5.28;1.33;;;28.90;76.70;;;;;;5133864;28;20015;-67
2021/07/31 08:32:37;;;;;;;4.55;1.65;;;29.60;71.40;;;;;;5133282;28;20071;-66
2021/07/31 08:35:02;;;;;;;3.88;1.80;;;29.40;69.90;;;;;;5133340;28;20067;-68
2021/07/31 08:37:28;;;;;;;4.22;1.50;;;29.30;69.00;;;;;;5133313;28;20015;-67
2021/07/31 08:39:54;;;;;;;4.45;1.70;;;29.50;68.90;;;;;;5133257;28;20422;-67
2021/07/31 08:42:20;;;;;;;5.72;1.85;;;30.40;67.00;;;;;;5133464;28;20148;-67
2021/07/31 08:44:45;;;;;;;5.68;1.73;;;31.30;64.70;;;;;;5133221;28;20467;-66
2021/07/31 08:47:13;;;;;;;4.50;1.33;;;31.20;64.20;;;;;;5133467;28;20383;-67
2021/07/31 08:49:43;;;;;;;4.07;1.40;;;32.20;62.30;;;;;;5133779;28;20426;-68
2021/07/31 08:52:08;;;;;;;9.50;1.80;;;33.20;60.70;;;;;;5133477;27;20027;-68
2021/07/31 08:54:38;;;;;;;5.43;1.42;;;33.30;60.00;;;;;;5133912;28;20020;-68
2021/07/31 08:57:04;;;;;;;5.68;1.40;;;33.40;59.10;;;;;;5133358;28;20030;-67
2021/07/31 08:59:30;;;;;;;5.38;1.40;;;33.60;58.50;;;;;;5133156;28;20034;-67
2021/07/31 09:01:56;;;;;;;3.60;1.45;;;34.30;57.70;;;;;;5133391;28;20098;-67
2021/07/31 09:04:23;;;;;;;6.82;1.90;;;35.20;56.40;;;;;;5133148;28;20068;-67
2021/07/31 09:06:49;;;;;;;4.05;1.60;;;35.50;55.00;;;;;;5133106;28;20032;-67
2021/07/31 09:09:27;;;;;;;5.32;2.38;;;35.00;54.90;;;;;;5134782;27;20106;-67
2021/07/31 09:12:01;;;;;;;3.92;1.80;;;34.90;54.50;;;;;;5137181;27;20065;-68
2021/07/31 09:14:28;;;;;;;3.45;1.33;;;35.40;54.20;;;;;;5137167;27;20027;-66
2021/07/31 09:16:54;;;;;;;3.70;1.48;;;35.90;53.50;;;;;;5136603;27;20480;-67
2021/07/31 09:19:21;;;;;;;5.43;1.60;;;35.90;52.60;;;;;;5136801;27;20058;-67
2021/07/31 09:21:49;;;;;;;5.15;1.45;;;35.50;52.40;;;;;;5136944;27;20532;-67
2021/07/31 09:24:22;;;;;;;4.03;1.65;;;35.50;52.40;;;;;;5136672;27;20475;-67
2021/07/31 09:26:53;;;;;;;6.38;1.88;;;36.20;51.80;;;;;;5135306;27;20034;-67
2021/07/31 09:29:25;;;;;;;4.00;1.70;;;36.40;51.30;;;;;;5136679;27;20012;-68
2021/07/31 09:32:04;;;;;;;6.75;1.60;;;35.60;51.30;;;;;;5136386;27;20023;-67
2021/07/31 09:34:36;;;;;;;3.90;1.30;;;34.90;51.60;;;;;;5136536;27;20491;-67
2021/07/31 09:37:23;;;;;;;6.05;1.63;;;33.60;52.90;;;;;;5136312;27;20472;-67
2021/07/31 09:39:55;;;;;;;3.58;1.40;;;33.60;53.50;;;;;;5136768;27;20019;-67
2021/07/31 09:42:33;;;;;;;3.45;1.35;;;34.30;52.40;;;;;;5135456;27;20031;-67
2021/07/31 09:45:04;;;;;;;3.97;1.50;;;34.50;51.90;;;;;;5136341;27;20053;-67
2021/07/31 09:47:30;;;;;;;4.38;1.65;;;33.00;52.70;;;;;;5136399;27;20320;-68
2021/07/31 09:49:58;;;;;;;5.00;1.50;;;31.90;54.80;;;;;;5135987;27;20011;-66
2021/07/31 09:52:25;;;;;;;4.40;1.70;;;31.50;56.00;;;;;;5135937;27;20073;-66
2021/07/31 09:54:53;;;;;;;5.05;1.40;;;31.40;56.20;;;;;;5136353;27;20019;-67
2021/07/31 09:57:22;;;;;;;4.65;1.50;;;31.30;56.30;;;;;;5136050;27;20046;-67
2021/07/31 09:59:50;;;;;;;5.07;1.75;;;31.30;56.60;;;;;;5135978;27;20023;-67
2021/07/31 10:02:18;;;;;;;4.38;1.65;;;31.80;56.00;;;;;;5136059;27;20023;-67
2021/07/31 10:04:45;;;;;;;3.78;1.50;;;31.80;55.00;;;;;;5134566;27;20433;-67
2021/07/31 10:07:15;;;;;;;9.25;1.90;;;31.30;55.80;;;;;;5135898;27;20011;-68
2021/07/31 10:09:42;;;;;;;3.55;1.35;;;31.10;56.10;;;;;;5135742;27;20020;-66
2021/07/31 10:12:14;;;;;;;4.72;1.95;;;31.10;55.10;;;;;;5136102;27;20015;-67
2021/07/31 10:14:40;;;;;;;3.92;1.10;;;31.50;54.70;;;;;;5135591;27;20080;-67
2021/07/31 10:17:06;;;;;;;4.80;1.58;;;31.70;54.70;;;;;;5136052;27;20487;-68
2021/07/31 10:19:45;;;;;;;3.55;1.52;;;31.60;55.10;;;;;;5135046;27;20026;-67
2021/07/31 10:22:14;;;;;;;5.75;1.75;;;31.00;55.90;;;;;;5135674;27;20027;-67
2021/07/31 10:25:01;;;;;;;5.47;1.88;;;29.90;57.80;;;;;;5135825;27;20080;-67
2021/07/31 10:27:27;;;;;;;3.83;1.73;;;28.70;58.80;;;;;;5134363;27;20116;-67
2021/07/31 10:29:55;;;;;;;5.05;1.65;;;27.90;60.70;;;;;;5135446;27;20051;-67
2021/07/31 10:32:32;;;;;;;4.03;1.73;;;27.30;61.90;;;;;;5135422;27;20037;-68
2021/07/31 10:35:05;;;;;;;4.53;1.67;;;26.70;63.60;;;;;;5135464;27;20019;-67
2021/07/31 10:37:52;;;;;;;5.20;1.50;;;27.10;63.50;;;;;;5135145;27;20058;-67
2021/07/31 10:40:30;;;;;;;;;;;27.30;63.10;;;;;;5136059;27;20035;-67
2021/07/31 10:42:55;;;;;;;;;;;28.70;61.70;;;;;;5135498;27;19907;-67
2021/07/31 10:45:26;;;;;;;4.23;1.40;;;30.60;59.00;;;;;;5135280;27;19949;-68
2021/07/31 10:47:56;;;;;;;3.88;1.63;;;32.30;56.40;;;;;;5135274;27;20027;-68
2021/07/31 10:50:22;;;;;;;3.65;1.63;;;34.00;54.70;;;;;;5135666;27;20023;-67
2021/07/31 10:52:50;;;;;;;3.95;1.77;;;34.90;52.30;;;;;;5135496;27;20034;-67
2021/07/31 10:55:17;;;;;;;3.83;1.70;;;35.30;51.80;;;;;;5136674;27;20031;-67
2021/07/31 10:57:52;;;;;;;5.00;1.60;;;34.20;51.90;;;;;;5139866;27;20023;-66
2021/07/31 11:00:29;;;;;;;3.40;1.33;;;32.70;53.80;;;;;;5138704;27;20023;-67
2021/07/31 11:02:58;;;;;;;3.80;1.38;;;32.80;54.20;;;;;;5133292;27;20447;-68
2021/07/31 11:05:24;;;;;;;3.60;1.60;;;33.20;52.90;;;;;;5135083;27;20023;-68
2021/07/31 11:08:02;;;;;;;3.30;1.25;;;34.00;52.70;;;;;;5134569;27;20034;-67
2021/07/31 11:10:42;;;;;;;5.13;1.65;;;34.30;51.50;;;;;;5134582;27;20486;-66
2021/07/31 11:13:28;;;;;;;3.22;1.75;;;33.40;52.50;;;;;;5134484;27;20111;-67
2021/07/31 11:16:00;;;;;;;;;;;31.60;54.40;;;;;;5119772;27;20517;-67
2021/07/31 11:18:26;;;;;;;3.65;1.70;;;30.40;55.60;;;;;;5134621;27;19911;-67
2021/07/31 11:20:53;;;;;;;4.53;1.60;;;29.50;57.10;;;;;;5134306;27;20106;-66
2021/07/31 11:23:19;;;;;;;4.03;1.60;;;28.90;57.40;;;;;;5132951;27;20080;-67
2021/07/31 11:25:46;;;;;;;3.33;1.42;;;28.10;59.00;;;;;;5134050;27;20507;-67
2021/07/31 11:28:12;;;;;;;4.57;3.15;;;27.80;60.20;;;;;;5132827;27;20019;-67
2021/07/31 11:30:42;;;;;;;8.35;2.33;;;27.60;61.30;;;;;;5133582;27;20434;-67
2021/07/31 11:33:23;;;;;;;5.05;1.40;;;27.20;61.60;;;;;;5133965;27;20537;-66
2021/07/31 11:35:51;;;;;;;3.47;1.30;;;26.80;62.10;;;;;;5134222;27;20333;-67
2021/07/31 11:38:37;;;;;;;9.30;2.00;;;26.70;62.90;;;;;;5133862;27;20059;-68
2021/07/31 11:41:13;;;;;;;5.07;1.47;;;26.50;63.50;;;;;;5133895;27;20085;-67
2021/07/31 11:43:53;;;;;;;4.55;1.52;;;26.40;63.20;;;;;;5134001;27;20098;-68
2021/07/31 11:46:35;;;;;;;5.70;1.42;;;26.20;63.70;;;;;;5133999;27;20034;-67
2021/07/31 11:49:03;;;;;;;4.78;1.58;;;26.10;65.10;;;;;;5134078;27;20460;-68
2021/07/31 11:51:30;;;;;;;4.20;1.70;;;26.10;64.60;;;;;;5134233;27;20027;-67
2021/07/31 11:54:03;;;;;;;6.45;2.03;;;26.10;63.90;;;;;;5133958;27;20019;-67
2021/07/31 11:56:29;;;;;;;4.38;1.65;;;25.90;64.80;;;;;;5134677;28;20333;-68
2021/07/31 11:58:56;;;;;;;4.22;1.70;;;25.90;65.10;;;;;;5133704;28;20356;-67
2021/07/31 12:01:22;;;;;;;4.00;1.77;;;26.00;64.20;;;;;;5133605;28;20102;-68
2021/07/31 12:03:48;;;;;;;;;;;25.90;64.10;;;;;;5134310;28;20149;-67
2021/07/31 12:06:32;;;;;;;7.10;2.87;;;25.90;63.90;;;;;;5134051;27;19911;-68
2021/07/31 12:09:02;;;;;;;3.70;1.50;;;25.90;64.30;;;;;;5133414;28;20290;-65
2021/07/31 12:11:35;;;;;;;6.05;2.50;;;26.00;63.60;;;;;;5133641;28;20435;-67
2021/07/31 12:14:22;;;;;;;6.63;1.70;;;25.80;63.70;;;;;;5132021;28;20019;-67
2021/07/31 12:16:47;;;;;;;4.00;2.05;;;25.80;63.90;;;;;;5122647;28;20036;-66
2021/07/31 12:19:13;;;;;;;7.15;2.70;;;25.80;63.70;;;;;;5133314;28;20030;-66
2021/07/31 12:21:38;;;;;;;;;;;25.90;63.90;;;;;;5134113;28;20024;-67
2021/07/31 12:24:04;;;;;;;3.95;1.90;;;25.80;64.00;;;;;;5133516;27;20108;-68
2021/07/31 12:26:31;;;;;;;4.88;1.30;;;25.80;63.70;;;;;;5134770;28;20535;-68
2021/07/31 12:28:57;;;;;;;5.18;1.85;;;25.80;63.20;;;;;;5133633;28;20042;-67
2021/07/31 12:31:24;;;;;;;;;;;25.80;63.60;;;;;;5134049;28;20472;-67
2021/07/31 12:33:49;;;;;;;3.63;1.33;;;25.80;63.60;;;;;;5132374;28;20313;-67
2021/07/31 12:36:15;;;;;;;;;;;25.90;64.00;;;;;;5134052;28;20256;-67
2021/07/31 12:38:40;;;;;;;3.10;1.30;;;26.00;63.30;;;;;;5134092;27;19903;-67
2021/07/31 12:41:06;;;;;;;;;;;26.00;63.80;;;;;;5134053;28;20097;-67
2021/07/31 12:43:32;;;;;;;5.25;1.80;;;25.90;63.90;;;;;;5135838;27;19907;-67
2021/07/31 12:46:00;;;;;;;5.22;1.70;;;25.90;64.30;;;;;;5137559;27;20382;-67
2021/07/31 12:48:26;;;;;;;5.95;1.55;;;25.80;65.20;;;;;;5137356;27;20448;-67
2021/07/31 12:50:52;;;;;;;4.18;1.55;;;25.80;65.30;;;;;;5137176;27;20027;-67
2021/07/31 12:53:19;;;;;;;;;;;25.80;65.40;;;;;;5137650;27;20157;-67